Friday, April 20, 2018, 10:18 AM GMT
Back to Local

CYBN, Borden, Ont.

Location: , , Canada Lat: 44.25
Local Time: 10:18 AM GMT (10:18 GMT) Lon: -79.917
Time Zone: GMT Elev: 731 ft

Show me the last for .
Show Decoded

2018-04-20 10:00 METAR CYBN 201000Z AUTO 34010KT 9SM CLR M02/M07 A3028 RMK SLP265 =
2018-04-20 09:00 METAR CYBN 200900Z AUTO 31004KT 9SM CLR M03/M06 A3026 RMK SLP258 =
2018-04-20 08:00 METAR CYBN 200800Z AUTO 32005KT 9SM CLR M02/M06 A3025 RMK SLP254 =
2018-04-20 07:00 METAR CYBN 200700Z AUTO 30004KT 9SM CLR M02/M06 A3023 RMK SLP250 =
2018-04-20 06:00 METAR CYBN 200600Z AUTO 31004KT 9SM CLR M02/M06 A3023 =
2018-04-20 05:00 METAR CYBN 200500Z AUTO 31003KT 280V350 9SM FEW056 M02/M07 A3022 =
2018-04-20 04:00 METAR CYBN 200400Z AUTO 32004KT 280V340 9SM OVC060 OVC082 M01/M06 A3021 =
2018-04-20 03:00 METAR CYBN 200300Z AUTO 33005KT 9SM FEW057 M00/M05 A3019 =
2018-04-20 02:00 METAR CYBN 200200Z AUTO 33006KT 290V350 9SM FEW051 01/M06 A3017 =
2018-04-20 01:00 METAR CYBN 200100Z AUTO 32007KT 280V350 9SM OVC051 OVC099 01/M07 A3014 RMK
                 SLP217 =
2018-04-20 00:00 METAR CYBN 200000Z AUTO 31009KT 270V350 9SM OVC055 02/M07 A3011 RMK SLP207 =
2018-04-19 23:00 METAR CYBN 192300Z AUTO 33009G18KT 300V360 9SM BKN055 OVC084 01/M07 A3009 RMK
                 SLP201 =
2018-04-19 22:00 METAR CYBN 192200Z AUTO 31016G25KT 280V350 9SM FEW081 01/M07 A3007 RMK SLP194 =
2018-04-19 21:00 METAR CYBN 192100Z AUTO 32013G26KT 280V360 9SM FEW034 FEW068 BKN087 01/M07 A3005
                 RMK SLP186 =
2018-04-19 20:00 METAR CYBN 192000Z AUTO 31018G26KT 9SM 01/M06 A3004 RMK SLP181 =
2018-04-19 19:00 METAR CYBN 191900Z AUTO 32016G24KT 270V350 9SM 01/M05 A3002 RMK SLP177 =
2018-04-19 18:00 METAR CYBN 191800Z AUTO 32013G25KT 290V350 9SM A3000 =
2018-04-19 17:00 METAR CYBN 191700Z AUTO 32016G21KT 290V350 9SM A2998 =
2018-04-19 16:00 METAR CYBN 191600Z AUTO 32011G21KT 290V350 9SM A2996 =
2018-04-19 15:00 METAR CYBN 191500Z AUTO 33012G20KT 290V360 9SM OVC022 OVC052 A2994 =
2018-04-19 13:00 METAR CYBN 191300Z AUTO 36010G15KT 310V020 9SM OVC022 M00/M04 A2989 RMK SLP131 =
2018-04-19 12:00 METAR CYBN 191200Z AUTO 34010KT 300V360 9SM OVC024 OVC041 OVC058 M01/M05 A2987
                 RMK SLP124 =
2018-04-19 11:00 METAR CYBN 191100Z AUTO 35010KT 320V030 9SM OVC037 M01/M05 A2985 RMK SLP117 =

Support USWX by starting your Amazon purchase here.